createdAt,value
2018-07-04T07:46:42.475Z,54.40
2018-07-04T07:47:49.202Z,76.44
2018-07-04T07:50:06.592Z,76.62
2018-07-04T07:51:10.189Z,76.57
2018-07-04T07:52:16.782Z,76.58
2018-07-04T07:53:23.667Z,76.63
2018-07-04T07:54:30.934Z,76.80
2018-07-04T07:55:37.934Z,76.90
2018-07-04T07:56:47.036Z,77.20
2018-07-04T07:57:52.928Z,77.28
2018-07-04T07:59:00.076Z,77.36
2018-07-04T08:00:07.102Z,77.32
2018-07-04T08:01:20.400Z,77.38
2018-07-04T08:02:19.578Z,77.25
2018-07-04T08:03:26.441Z,77.30
2018-07-04T08:04:35.519Z,77.41
2018-07-04T08:05:40.315Z,77.63
2018-07-04T08:06:47.128Z,77.69
2018-07-04T08:07:54.032Z,77.82
2018-07-04T08:09:10.089Z,78.02
2018-07-04T08:10:08.002Z,78.04
2018-07-04T08:11:14.982Z,78.03
2018-07-04T08:12:24.935Z,78.26
2018-07-04T08:13:29.091Z,78.46
2018-07-04T08:14:36.047Z,78.73
2018-07-04T08:15:46.348Z,78.65
2018-07-04T08:16:50.007Z,78.73
2018-07-04T08:17:57.190Z,78.79
2018-07-04T08:19:06.743Z,78.74
2018-07-04T08:20:10.842Z,78.98
2018-07-04T08:21:17.768Z,79.13
2018-07-04T08:22:24.818Z,79.11
2018-07-04T08:23:33.470Z,79.21
2018-07-04T08:24:40.173Z,79.32
2018-07-04T08:25:45.577Z,79.53
2018-07-04T08:26:52.516Z,79.59
2018-07-04T08:28:00.383Z,79.66
2018-07-04T08:29:06.422Z,80.02
2018-07-04T08:30:13.350Z,79.96
2018-07-04T08:31:23.580Z,79.92
2018-07-04T08:32:27.406Z,80.17
2018-07-04T08:33:41.042Z,80.25
2018-07-04T08:34:42.620Z,80.23
2018-07-04T08:35:48.568Z,80.41
2018-07-04T08:36:56.275Z,80.44
2018-07-04T08:38:01.870Z,80.44
2018-07-04T08:40:15.280Z,80.42
2018-07-04T08:41:22.097Z,80.43
2018-07-04T08:42:28.734Z,80.59
2018-07-04T08:43:35.757Z,80.64
2018-07-04T08:44:44.234Z,80.50
2018-07-04T08:45:49.935Z,80.23
2018-07-04T08:46:56.949Z,80.12
2018-07-04T08:48:04.075Z,80.12
2018-07-04T08:49:10.914Z,80.08
2018-07-04T08:51:25.079Z,79.92
2018-07-04T08:52:32.248Z,79.86
2018-07-04T08:53:38.883Z,79.76
2018-07-04T08:54:45.905Z,79.75
2018-07-04T08:55:52.958Z,79.66
2018-07-04T08:56:59.763Z,79.72
2018-07-04T08:58:06.660Z,79.67
2018-07-04T09:00:23.588Z,79.53
2018-07-04T09:01:28.496Z,79.32
2018-07-04T09:02:34.540Z,79.36
2018-07-04T09:03:41.594Z,79.30
2018-07-04T09:04:48.757Z,79.17
2018-07-04T09:05:56.287Z,79.25
2018-07-04T09:07:03.354Z,79.17
2018-07-04T09:08:09.304Z,79.01
2018-07-04T09:09:15.870Z,79.11
2018-07-04T09:10:22.877Z,78.99
2018-07-04T09:11:38.671Z,78.88
2018-07-04T09:13:43.690Z,78.97
2018-07-04T09:14:52.203Z,78.68
2018-07-04T09:15:57.271Z,78.57
2018-07-04T09:17:13.080Z,78.53
2018-07-04T09:18:11.885Z,78.54
2018-07-04T09:19:17.726Z,78.56
2018-07-04T09:20:25.037Z,78.57
2018-07-04T09:21:31.918Z,78.46
2018-07-04T09:23:45.462Z,78.30
2018-07-04T09:25:59.389Z,78.33
2018-07-04T09:27:06.307Z,78.13
2018-07-04T09:28:13.278Z,78.03
2018-07-04T09:29:20.224Z,78.05
2018-07-04T09:30:27.004Z,77.96
2018-07-04T09:31:33.891Z,77.81
2018-07-04T09:32:41.619Z,77.62
2018-07-04T09:33:48.767Z,77.53
2018-07-04T09:34:55.016Z,77.42
2018-07-04T09:36:01.637Z,77.40
2018-07-04T09:37:08.558Z,77.26
2018-07-04T09:38:15.443Z,77.12
2018-07-04T09:39:26.282Z,77.11
2018-07-04T09:40:29.214Z,77.12
2018-07-04T09:41:36.127Z,77.04
2018-07-04T09:42:54.022Z,76.96
2018-07-04T09:43:50.047Z,76.87
2018-07-04T09:46:04.098Z,77.05
2018-07-04T09:47:14.319Z,76.86
2018-07-04T09:48:20.410Z,76.82
2018-07-04T09:49:31.895Z,76.75
2018-07-04T09:50:32.252Z,76.67
2018-07-04T09:51:39.248Z,76.58
2018-07-04T09:52:46.193Z,76.70
2018-07-04T09:53:53.183Z,76.66
2018-07-04T09:55:00.046Z,76.50
2018-07-04T09:56:07.098Z,76.27
2018-07-04T09:57:14.184Z,76.24
2018-07-04T09:58:21.255Z,76.15
2018-07-04T09:59:28.252Z,76.07
2018-07-04T10:00:35.286Z,75.95
2018-07-04T10:01:51.554Z,75.89
2018-07-04T10:02:56.734Z,75.77
2018-07-04T10:04:03.714Z,75.62
2018-07-04T10:05:11.528Z,75.64
2018-07-04T10:06:17.706Z,75.67
2018-07-04T10:07:24.651Z,75.43
2018-07-04T10:08:32.637Z,75.50
2018-07-04T10:09:38.411Z,75.47
2018-07-04T10:10:45.429Z,75.42
2018-07-04T10:11:52.495Z,75.22
2018-07-04T10:12:59.394Z,75.12
2018-07-04T10:14:06.542Z,75.32
2018-07-04T10:15:13.146Z,75.21
2018-07-04T10:16:20.159Z,75.13
2018-07-04T10:18:43.042Z,75.04
2018-07-04T10:19:51.022Z,74.67
2018-07-04T10:21:10.786Z,74.88
2018-07-04T10:22:03.467Z,74.73
2018-07-04T10:23:10.119Z,74.84
2018-07-04T10:24:16.791Z,74.52
2018-07-04T10:25:23.702Z,74.41
2018-07-04T10:26:30.871Z,74.47
2018-07-04T10:27:37.928Z,74.32
2018-07-04T10:28:45.436Z,74.55
2018-07-04T10:29:55.657Z,74.31
2018-07-04T10:30:59.122Z,73.97
2018-07-04T10:32:06.358Z,73.66
2018-07-04T10:33:13.362Z,73.41
2018-07-04T10:34:20.317Z,73.33
2018-07-04T10:35:32.974Z,73.46
2018-07-04T10:36:34.278Z,73.63
2018-07-04T10:37:41.079Z,73.51
2018-07-04T10:38:47.984Z,73.70
2018-07-04T10:39:55.015Z,73.62
2018-07-04T10:41:02.627Z,73.43
2018-07-04T10:42:09.096Z,73.04
2018-07-04T10:43:19.815Z,72.87
2018-07-04T10:44:23.395Z,72.63
2018-07-04T10:45:30.370Z,72.36
2018-07-04T10:47:45.897Z,71.65
2018-07-04T10:52:56.030Z,71.40
2018-07-04T10:54:02.042Z,70.61
2018-07-04T10:56:15.958Z,70.21
2018-07-04T10:57:22.691Z,70.29
2018-07-04T10:58:29.766Z,70.40
2018-07-04T10:59:36.692Z,70.37
2018-07-04T11:00:43.664Z,70.55
2018-07-04T11:01:54.743Z,70.32
2018-07-04T11:02:57.667Z,70.11
2018-07-04T11:04:05.701Z,70.01
2018-07-04T11:05:15.420Z,70.11
2018-07-04T11:06:18.219Z,69.98
2018-07-04T11:07:25.310Z,69.79
2018-07-04T11:08:32.337Z,69.80
2018-07-04T11:09:40.550Z,69.47
2018-07-04T11:10:54.925Z,69.48
2018-07-04T11:11:56.654Z,69.27
2018-07-04T11:13:00.191Z,69.54
2018-07-04T11:14:06.819Z,69.57
2018-07-04T11:15:13.982Z,69.42
2018-07-04T11:16:20.991Z,69.70
2018-07-04T11:17:28.189Z,69.67
2018-07-04T11:18:35.236Z,69.35
2018-07-04T11:19:43.839Z,69.09
2018-07-04T11:20:49.128Z,69.12
2018-07-04T11:21:56.003Z,68.76
2018-07-04T11:23:11.255Z,68.36
2018-07-04T11:24:18.420Z,68.37
2018-07-04T11:25:25.211Z,67.89
2018-07-04T11:26:31.804Z,67.54
2018-07-04T11:27:38.733Z,67.55
2018-07-04T11:28:45.577Z,67.51
2018-07-04T11:29:52.446Z,67.28
2018-07-04T11:30:59.445Z,67.14
2018-07-04T11:32:11.920Z,66.87
2018-07-04T11:33:13.397Z,67.08
2018-07-04T11:34:20.279Z,67.09
2018-07-04T11:35:27.193Z,66.93
2018-07-04T11:36:34.931Z,66.70
2018-07-04T11:37:41.291Z,66.47
2018-07-04T11:38:48.618Z,66.53
2018-07-04T11:39:55.043Z,66.31
2018-07-04T11:41:01.796Z,66.19
2018-07-04T11:42:08.654Z,66.05
2018-07-04T11:43:15.601Z,66.13
2018-07-04T11:44:25.922Z,66.40
2018-07-04T11:45:29.464Z,66.50
2018-07-04T11:46:36.544Z,66.83
2018-07-04T11:47:44.506Z,66.70
2018-07-04T11:48:50.187Z,66.79
2018-07-04T11:49:57.176Z,66.84
2018-07-04T11:51:03.990Z,66.69
2018-07-04T11:52:11.010Z,66.55
2018-07-04T11:53:25.939Z,66.45
2018-07-04T11:54:24.944Z,66.41
2018-07-04T11:55:31.751Z,66.25
2018-07-04T11:56:38.596Z,66.09
2018-07-04T11:57:45.483Z,66.10
2018-07-04T11:58:52.280Z,65.62
2018-07-04T11:59:59.512Z,65.40
2018-07-04T12:01:05.934Z,65.20
2018-07-04T12:02:16.716Z,65.10
2018-07-04T12:03:19.550Z,65.00
2018-07-04T12:04:27.490Z,64.60
2018-07-04T12:05:33.568Z,64.19
2018-07-04T12:06:40.639Z,64.11
2018-07-04T12:07:47.566Z,63.94
2018-07-04T12:08:54.467Z,63.53
2018-07-04T12:10:00.836Z,63.45
2018-07-04T12:11:07.663Z,63.23
2018-07-04T12:12:14.473Z,63.05
2018-07-04T12:13:21.258Z,63.35
2018-07-04T12:14:28.185Z,63.51
2018-07-04T12:15:37.200Z,63.64
2018-07-04T12:16:42.313Z,63.76
2018-07-04T12:17:49.627Z,64.08
2018-07-04T12:18:56.204Z,64.44
2018-07-04T12:20:03.033Z,64.59
2018-07-04T12:21:09.905Z,64.69
2018-07-04T12:22:16.890Z,65.04
2018-07-04T12:23:28.807Z,64.95
2018-07-04T12:24:30.718Z,65.27
2018-07-04T12:25:37.658Z,65.24
2018-07-04T12:26:44.701Z,65.20
2018-07-04T12:27:51.522Z,65.13
2018-07-04T12:28:58.312Z,65.16
2018-07-04T12:30:05.186Z,65.54
2018-07-04T12:31:12.029Z,66.15
2018-07-04T12:32:19.041Z,66.71
2018-07-04T12:33:25.840Z,67.21
2018-07-04T12:34:32.655Z,67.38
2018-07-04T12:35:40.659Z,67.78
2018-07-04T12:36:46.474Z,67.78
2018-07-04T12:37:53.294Z,67.26
2018-07-04T12:39:00.145Z,66.91
2018-07-04T12:40:07.138Z,66.43
2018-07-04T12:41:13.989Z,66.17
2018-07-04T12:42:20.835Z,65.97
2018-07-04T12:43:27.726Z,65.66
2018-07-04T12:44:35.457Z,65.31
2018-07-04T12:45:43.761Z,65.04
2018-07-04T12:46:48.316Z,64.57
2018-07-04T12:47:55.188Z,64.12
2018-07-04T12:49:02.216Z,63.93
2018-07-04T12:50:09.090Z,63.49
2018-07-04T12:51:16.089Z,63.10
2018-07-04T12:52:23.069Z,62.69
2018-07-04T12:53:29.895Z,62.45
2018-07-04T12:54:36.737Z,62.34
2018-07-04T12:55:43.592Z,62.23
2018-07-04T12:56:50.478Z,62.08
2018-07-04T12:57:57.420Z,61.85
2018-07-04T12:59:04.323Z,61.46
2018-07-04T13:00:11.389Z,61.40
2018-07-04T13:01:18.019Z,61.43
2018-07-04T13:03:32.552Z,61.55
2018-07-04T13:04:38.486Z,61.71
2018-07-04T13:05:45.515Z,61.97
2018-07-04T13:06:52.131Z,62.15
2018-07-04T13:07:59.106Z,62.18
2018-07-04T13:09:08.020Z,62.41
2018-07-04T13:10:19.256Z,62.53
2018-07-04T13:11:19.784Z,62.31
2018-07-04T13:12:30.787Z,62.33
2018-07-04T13:13:33.715Z,62.14
2018-07-04T13:14:41.302Z,61.84
2018-07-04T13:15:47.916Z,61.84
2018-07-04T13:16:53.896Z,61.63
2018-07-04T13:18:00.706Z,61.56
2018-07-04T13:19:07.490Z,61.66
2018-07-04T13:20:14.358Z,61.66
2018-07-04T13:21:21.185Z,61.69
2018-07-04T13:22:28.029Z,61.83
2018-07-04T13:23:35.033Z,61.84
2018-07-04T13:24:41.923Z,61.82
2018-07-04T13:25:48.651Z,61.89
2018-07-04T13:26:55.550Z,61.94
2018-07-04T13:28:02.535Z,61.93
2018-07-04T13:29:09.466Z,62.04
2018-07-04T13:30:16.434Z,62.17
2018-07-04T13:31:23.384Z,62.21
2018-07-04T13:32:30.348Z,62.34
2018-07-04T13:33:37.143Z,62.43
2018-07-04T13:34:43.995Z,62.51
2018-07-04T13:35:50.906Z,62.62
2018-07-04T13:36:58.055Z,62.71
2018-07-04T13:38:05.278Z,62.67
2018-07-04T13:39:11.627Z,62.64
2018-07-04T13:40:18.667Z,62.73
2018-07-04T13:42:38.141Z,63.00
2018-07-04T13:43:39.275Z,63.08
2018-07-04T14:01:49.631Z,63.26
2018-07-04T14:02:56.554Z,65.18
2018-07-04T14:04:03.738Z,65.32
2018-07-04T14:05:11.087Z,65.53
2018-07-04T14:06:17.588Z,65.61
2018-07-04T14:07:25.306Z,65.72
2018-07-04T14:08:31.475Z,65.85
2018-07-04T14:09:38.492Z,65.98
2018-07-04T14:10:45.540Z,66.03
2018-07-04T14:11:52.477Z,66.09
2018-07-04T14:12:59.631Z,66.20
2018-07-04T14:14:06.597Z,66.24
2018-07-04T14:15:13.615Z,66.33
2018-07-04T14:16:20.736Z,66.36
2018-07-04T14:17:27.952Z,66.42
2018-07-04T14:18:34.858Z,66.55
2018-07-04T14:19:41.330Z,66.65
2018-07-04T14:20:48.346Z,66.79
2018-07-04T14:21:55.417Z,66.94
2018-07-04T14:23:02.357Z,67.11
2018-07-04T14:24:27.264Z,67.17
2018-07-04T14:25:35.430Z,67.31
2018-07-04T14:26:41.114Z,67.70
2018-07-04T14:27:48.040Z,67.95
2018-07-04T14:28:55.411Z,68.14
2018-07-04T14:30:01.910Z,68.45
2018-07-04T14:31:08.909Z,68.24
2018-07-04T14:32:15.909Z,68.24
2018-07-04T14:33:23.007Z,68.22
2018-07-04T14:34:29.900Z,68.26
2018-07-04T14:35:37.082Z,68.16
2018-07-04T14:36:43.439Z,68.24
2018-07-04T14:37:50.410Z,68.27
2018-07-04T14:38:57.487Z,68.33
2018-07-04T14:40:04.344Z,68.07
2018-07-04T14:41:11.225Z,67.98
2018-07-04T14:42:18.548Z,68.02
2018-07-04T14:43:25.043Z,67.59
2018-07-04T14:44:31.988Z,67.41
2018-07-04T14:45:38.946Z,67.25
2018-07-04T14:46:45.896Z,67.37
2018-07-04T14:47:52.930Z,67.42
2018-07-04T14:48:59.872Z,67.50
2018-07-04T14:50:06.909Z,67.55
2018-07-04T14:51:14.795Z,67.59
2018-07-04T14:52:20.830Z,67.45
2018-07-04T14:53:27.615Z,67.37
2018-07-04T14:54:34.734Z,67.46
2018-07-04T14:55:43.342Z,67.63
2018-07-04T14:56:49.038Z,67.64
2018-07-04T14:57:55.866Z,67.87
2018-07-04T14:59:02.400Z,68.12
2018-07-04T15:00:12.051Z,68.26
2018-07-04T15:01:15.860Z,68.19
2018-07-04T15:02:22.525Z,68.21
2018-07-04T15:03:29.520Z,68.40
2018-07-04T15:04:36.726Z,68.32
2018-07-04T15:05:43.586Z,68.47
2018-07-04T15:06:51.142Z,68.51
2018-07-04T15:07:57.449Z,68.72
2018-07-04T15:09:04.352Z,68.58
2018-07-04T15:10:11.090Z,68.74
2018-07-04T15:11:17.762Z,68.82
2018-07-04T15:12:25.008Z,68.98
2018-07-04T15:13:33.300Z,69.09
2018-07-04T15:14:38.546Z,69.42
2018-07-04T15:15:46.260Z,69.74
2018-07-04T15:16:51.974Z,69.73
2018-07-04T15:17:58.794Z,69.90
2018-07-04T15:19:14.894Z,69.93
2018-07-04T15:20:13.143Z,69.91
2018-07-04T15:21:20.422Z,70.19
2018-07-04T15:22:27.558Z,70.37
2018-07-04T15:23:33.382Z,70.33
2018-07-04T15:24:41.464Z,70.45
2018-07-04T15:26:54.655Z,70.34
2018-07-04T15:28:01.580Z,70.46
2018-07-04T15:29:08.315Z,70.55
2018-07-04T15:30:16.780Z,70.64
2018-07-04T15:31:21.957Z,70.53
2018-07-04T15:32:37.117Z,70.49
2018-07-04T15:33:44.444Z,70.48
2018-07-04T15:34:42.671Z,70.61
2018-07-04T15:35:50.984Z,70.61
2018-07-04T15:36:56.267Z,70.58
2018-07-04T15:38:04.475Z,70.78
2018-07-04T15:39:10.521Z,70.86
2018-07-04T15:40:17.467Z,70.87
2018-07-04T15:41:27.567Z,70.86
2018-07-04T15:42:31.210Z,71.02
2018-07-04T15:43:38.756Z,70.89
2018-07-04T15:44:45.317Z,70.84
2018-07-04T15:45:51.977Z,70.81
2018-07-04T15:46:58.933Z,70.71
2018-07-04T15:48:05.867Z,70.72
2018-07-04T15:49:12.729Z,70.74
2018-07-04T15:50:19.895Z,70.71
2018-07-04T15:51:26.595Z,70.70
2018-07-04T15:52:33.542Z,70.51
2018-07-04T15:53:40.626Z,70.21
2018-07-04T15:54:47.775Z,69.96
2018-07-04T15:55:54.776Z,69.97
2018-07-04T15:57:01.741Z,70.08
2018-07-04T15:58:08.728Z,69.95
2018-07-04T15:59:18.931Z,69.96
2018-07-04T16:00:24.260Z,69.86
2018-07-04T16:01:29.440Z,69.77
2018-07-04T16:02:36.299Z,69.77
2018-07-04T16:03:46.596Z,69.61
2018-07-04T16:04:50.206Z,69.61
2018-07-04T16:05:57.574Z,69.48
2018-07-04T16:07:04.279Z,69.34
2018-07-04T16:08:10.891Z,69.28
2018-07-04T16:09:17.951Z,69.44
2018-07-04T16:10:24.946Z,69.14
2018-07-04T16:11:31.911Z,69.04
2018-07-04T16:12:38.855Z,69.09
2018-07-04T16:13:46.530Z,69.37
2018-07-04T16:14:53.387Z,69.60
2018-07-04T16:15:59.850Z,69.98
2018-07-04T16:17:06.794Z,70.08
2018-07-04T16:18:14.165Z,70.19
2018-07-04T16:19:21.296Z,70.29
2018-07-04T16:20:27.667Z,70.42
2018-07-04T16:21:46.075Z,70.52
2018-07-04T16:22:41.329Z,70.53
2018-07-04T16:23:48.724Z,70.56
2018-07-04T16:24:55.313Z,70.74
2018-07-04T16:26:02.141Z,70.83
2018-07-04T16:27:14.829Z,70.97
2018-07-04T16:28:15.869Z,70.96
2018-07-04T16:29:22.985Z,71.12
2018-07-04T16:30:29.468Z,71.15
2018-07-04T16:31:36.398Z,71.20
2018-07-04T16:32:43.273Z,71.30
2018-07-04T16:33:50.275Z,71.39
2018-07-04T16:34:57.238Z,71.46
2018-07-04T16:36:04.111Z,71.67
2018-07-04T16:37:10.962Z,71.85
2018-07-04T16:38:17.960Z,72.04
2018-07-04T16:39:24.820Z,72.11
2018-07-04T16:40:31.742Z,72.14
2018-07-04T16:41:38.572Z,72.12
2018-07-04T16:42:45.343Z,72.09
2018-07-04T16:43:52.198Z,72.00
2018-07-04T16:44:59.075Z,71.93
2018-07-04T16:46:05.950Z,71.93
2018-07-04T16:47:13.097Z,71.96
2018-07-04T16:48:19.701Z,71.99
2018-07-04T16:49:26.718Z,71.96
2018-07-04T16:50:33.647Z,71.97
2018-07-04T16:51:40.534Z,71.87
2018-07-04T16:52:47.570Z,71.89
2018-07-04T16:53:54.562Z,71.75
2018-07-04T16:55:01.595Z,71.75
2018-07-04T16:56:08.478Z,71.81
2018-07-04T16:57:16.420Z,71.95
2018-07-04T16:58:22.283Z,72.16
2018-07-04T16:59:29.271Z,72.29
2018-07-04T17:00:36.391Z,72.42
2018-07-04T17:01:42.910Z,72.55
2018-07-04T17:02:49.834Z,72.65
2018-07-04T17:03:56.775Z,72.62
2018-07-04T17:05:03.610Z,72.57
2018-07-04T17:06:10.695Z,72.51
2018-07-04T17:07:17.544Z,72.55
2018-07-04T17:08:24.433Z,72.65
2018-07-04T17:09:31.478Z,72.50
2018-07-04T17:10:38.309Z,72.47
2018-07-04T17:11:45.193Z,72.55
2018-07-04T17:12:51.983Z,72.63
2018-07-04T17:13:58.807Z,72.70
2018-07-04T17:15:05.802Z,72.79
2018-07-04T17:16:12.651Z,72.81
2018-07-04T17:17:19.630Z,72.83
2018-07-04T17:18:26.777Z,72.97
2018-07-04T17:19:33.706Z,73.13
2018-07-04T17:20:40.750Z,73.15
2018-07-04T17:21:47.795Z,73.27
2018-07-04T17:22:54.902Z,73.38
2018-07-04T17:24:01.806Z,73.45
2018-07-04T17:25:08.675Z,73.48
2018-07-04T17:26:15.634Z,73.55
2018-07-04T17:27:22.590Z,73.66
2018-07-04T17:28:29.640Z,73.73
2018-07-04T17:29:36.659Z,73.74
2018-07-04T17:30:43.821Z,73.71
2018-07-04T17:31:50.308Z,73.74
2018-07-04T17:32:57.230Z,73.79
2018-07-04T17:34:04.198Z,73.91
2018-07-04T17:35:10.986Z,73.96
2018-07-04T17:36:17.840Z,74.06
2018-07-04T17:37:24.698Z,74.01
2018-07-04T17:38:31.684Z,73.97
2018-07-04T17:39:38.601Z,74.03
2018-07-04T17:40:45.550Z,74.06
2018-07-04T17:41:52.451Z,74.07
2018-07-04T17:42:59.359Z,74.02
2018-07-04T17:44:06.312Z,74.06
2018-07-04T17:45:12.959Z,74.11
2018-07-04T17:46:19.826Z,74.11
2018-07-04T17:47:26.763Z,74.14
2018-07-04T17:48:33.783Z,74.18
2018-07-04T17:49:40.816Z,74.22
2018-07-04T17:50:47.673Z,74.26
2018-07-04T17:51:54.811Z,74.27
2018-07-04T17:53:01.846Z,74.25
2018-07-04T17:54:08.818Z,74.26
2018-07-04T17:55:15.693Z,74.29
2018-07-04T17:56:22.620Z,74.38
2018-07-04T17:57:29.532Z,74.41
2018-07-04T17:58:36.547Z,74.43
2018-07-04T17:59:43.616Z,74.48
2018-07-04T18:00:50.584Z,74.54
2018-07-04T18:01:57.699Z,74.57
2018-07-04T18:03:05.064Z,74.62
2018-07-04T18:04:12.317Z,74.70
2018-07-04T18:05:18.337Z,74.75
2018-07-04T18:06:25.418Z,74.83
2018-07-04T18:07:32.357Z,74.84
2018-07-04T18:08:39.559Z,74.87
2018-07-04T18:09:45.875Z,74.92
2018-07-04T18:10:52.854Z,74.94
2018-07-04T18:11:59.841Z,74.88
2018-07-04T18:13:06.848Z,74.87
2018-07-04T18:14:13.852Z,74.81
2018-07-04T18:15:20.814Z,74.80
2018-07-04T18:16:27.813Z,74.75
2018-07-04T18:17:35.020Z,74.74
2018-07-04T18:18:42.054Z,74.73
2018-07-04T18:19:49.074Z,74.71
2018-07-04T18:20:55.968Z,74.64
2018-07-04T18:22:02.974Z,74.60
2018-07-04T18:23:09.879Z,74.52
2018-07-04T18:24:16.866Z,74.48
2018-07-04T18:25:23.891Z,74.45
2018-07-04T18:26:30.923Z,74.39
2018-07-04T18:27:37.827Z,74.37
2018-07-04T18:28:44.664Z,74.37
2018-07-04T18:29:51.687Z,74.30
2018-07-04T18:30:58.587Z,74.26
2018-07-04T18:32:05.455Z,74.23
2018-07-04T18:33:12.353Z,74.09
2018-07-04T18:34:19.286Z,74.07
2018-07-04T18:35:26.149Z,74.03
2018-07-04T18:36:33.201Z,74.04
2018-07-04T18:37:40.182Z,74.01
2018-07-04T18:38:47.163Z,73.97
2018-07-04T18:39:54.338Z,73.99
2018-07-04T18:41:00.824Z,74.04
2018-07-04T18:42:07.874Z,74.07
2018-07-04T18:43:14.727Z,74.06
2018-07-04T18:44:21.710Z,74.08
2018-07-04T18:45:28.779Z,74.11
2018-07-04T18:46:35.639Z,74.11
2018-07-04T18:47:42.583Z,74.14
2018-07-04T18:48:49.705Z,74.21
2018-07-04T18:49:56.543Z,74.21
2018-07-04T18:51:03.274Z,74.20
2018-07-04T18:52:10.220Z,74.22
2018-07-04T18:53:17.190Z,74.19
2018-07-04T18:54:24.179Z,74.19
2018-07-04T18:55:31.102Z,74.18
2018-07-04T18:56:38.033Z,74.19
2018-07-04T18:57:44.903Z,74.17
2018-07-04T18:58:51.950Z,74.22
2018-07-04T18:59:58.866Z,74.26
2018-07-04T19:01:05.992Z,74.31
2018-07-04T19:02:12.891Z,74.35
2018-07-04T19:03:19.842Z,74.41
2018-07-04T19:04:26.705Z,74.43
2018-07-04T19:05:33.678Z,74.43
2018-07-04T19:06:40.803Z,74.38
2018-07-04T19:07:47.696Z,74.30
2018-07-04T19:08:54.666Z,74.25
2018-07-04T19:10:01.642Z,74.28
2018-07-04T19:11:08.525Z,74.23
2018-07-04T19:12:15.400Z,74.26
2018-07-04T19:13:22.525Z,74.19
2018-07-04T19:14:29.394Z,74.17
2018-07-04T19:15:36.388Z,74.09
2018-07-04T19:16:43.338Z,74.05
2018-07-04T19:17:50.483Z,74.08
2018-07-04T19:18:57.309Z,74.02
2018-07-04T19:20:04.149Z,74.04
2018-07-04T19:21:11.154Z,74.02
2018-07-04T19:22:18.070Z,74.01
2018-07-04T19:23:25.136Z,73.97
2018-07-04T19:24:31.894Z,73.95
2018-07-04T19:25:38.846Z,73.94
2018-07-04T19:26:45.874Z,73.96
2018-07-04T19:27:52.745Z,73.97
2018-07-04T19:28:59.598Z,73.96
2018-07-04T19:30:06.414Z,73.92
2018-07-04T19:31:13.395Z,73.91
2018-07-04T19:32:20.297Z,73.86
2018-07-04T19:33:27.180Z,73.79
2018-07-04T19:34:33.912Z,73.76
2018-07-04T19:35:40.819Z,73.71
2018-07-04T19:36:47.743Z,73.64
2018-07-04T19:37:54.783Z,73.57
2018-07-04T19:39:01.930Z,73.54
2018-07-04T19:40:08.633Z,73.41
2018-07-04T19:41:15.561Z,73.38
2018-07-04T19:42:22.567Z,73.32
2018-07-04T19:43:29.416Z,73.27
2018-07-04T19:44:36.222Z,73.19
2018-07-04T19:45:43.118Z,73.07
2018-07-04T19:46:50.005Z,72.95
2018-07-04T19:47:57.086Z,72.86
2018-07-04T19:49:03.796Z,72.73
2018-07-04T19:50:10.714Z,72.66
2018-07-04T19:51:17.534Z,72.64
2018-07-04T19:52:24.395Z,72.62
2018-07-04T19:53:31.345Z,72.54
2018-07-04T19:54:38.146Z,72.45
2018-07-04T19:55:45.102Z,72.43
2018-07-04T19:56:52.129Z,72.43
2018-07-04T19:57:59.114Z,72.35
2018-07-04T19:59:06.445Z,72.33
2018-07-04T20:00:12.874Z,72.36
2018-07-04T20:01:19.677Z,72.36
2018-07-04T20:02:26.423Z,72.39
2018-07-04T20:03:33.328Z,72.39
2018-07-04T20:04:40.145Z,72.35
2018-07-04T20:05:46.930Z,72.32
2018-07-04T20:06:53.813Z,72.25
2018-07-04T20:08:00.615Z,72.14
2018-07-04T20:09:07.445Z,72.11
2018-07-04T20:10:14.326Z,72.16
2018-07-04T20:11:21.177Z,72.17
2018-07-04T20:12:28.030Z,72.16
2018-07-04T20:13:35.099Z,72.12
2018-07-04T20:14:42.154Z,72.09
2018-07-04T20:15:49.728Z,72.13
2018-07-04T20:16:55.513Z,72.04
2018-07-04T20:18:02.494Z,72.01
2018-07-04T20:19:09.406Z,71.94
2018-07-04T20:20:16.230Z,71.90
2018-07-04T20:21:23.178Z,71.89
2018-07-04T20:22:30.120Z,71.86
2018-07-04T20:23:36.970Z,71.87
2018-07-04T20:24:43.950Z,71.87
2018-07-04T20:25:50.947Z,71.86
2018-07-04T20:26:57.871Z,71.91
2018-07-04T20:28:04.962Z,71.98
2018-07-04T20:29:11.987Z,71.95
2018-07-04T20:30:19.035Z,71.96
2018-07-04T20:31:25.621Z,71.89
2018-07-04T20:32:32.621Z,71.91
2018-07-04T20:33:39.726Z,71.90
2018-07-04T20:34:46.818Z,71.90
2018-07-04T20:35:53.767Z,71.87
2018-07-04T20:37:00.679Z,71.89
2018-07-04T20:38:07.608Z,71.96
2018-07-04T20:39:14.646Z,72.00
2018-07-04T20:40:21.545Z,72.01
2018-07-04T20:41:28.489Z,72.05
2018-07-04T20:42:35.478Z,72.17
2018-07-04T20:43:42.382Z,72.21
2018-07-04T20:44:49.349Z,72.31
2018-07-04T20:45:56.199Z,72.33
2018-07-04T20:47:03.173Z,72.31
2018-07-04T20:48:10.143Z,72.34
2018-07-04T20:49:17.048Z,72.39
2018-07-04T20:50:24.064Z,72.42
2018-07-04T20:51:30.965Z,72.42
2018-07-04T20:52:37.742Z,72.46
2018-07-04T20:53:44.720Z,72.44
2018-07-04T20:54:51.722Z,72.42
2018-07-04T20:55:58.736Z,72.35
2018-07-04T20:57:05.702Z,72.33
2018-07-04T20:58:12.671Z,72.33
2018-07-04T20:59:19.556Z,72.32
2018-07-04T21:00:26.605Z,72.33
2018-07-04T21:01:33.479Z,72.29
2018-07-04T21:02:40.385Z,72.18
2018-07-04T21:03:47.402Z,72.18
2018-07-04T21:04:54.282Z,72.14
2018-07-04T21:06:01.155Z,72.09
2018-07-04T21:07:08.169Z,72.07
2018-07-04T21:08:15.155Z,72.07
2018-07-04T21:09:22.039Z,72.01
2018-07-04T21:10:28.915Z,71.89
2018-07-04T21:11:35.860Z,71.86
2018-07-04T21:12:42.636Z,71.87
2018-07-04T21:13:49.458Z,71.83
2018-07-04T21:14:56.326Z,71.89
2018-07-04T21:16:03.266Z,71.92
2018-07-04T21:17:10.239Z,72.01
2018-07-04T21:18:17.247Z,72.04
2018-07-04T21:19:24.134Z,72.11
2018-07-04T21:20:31.171Z,72.15
2018-07-04T21:21:38.030Z,72.21
2018-07-04T21:22:45.062Z,72.28
2018-07-04T21:23:51.849Z,72.32
2018-07-04T21:24:58.830Z,72.37
2018-07-04T21:26:05.721Z,72.41
2018-07-04T21:27:12.634Z,72.47
2018-07-04T21:28:19.774Z,72.52
2018-07-04T21:29:26.641Z,72.58
2018-07-04T21:30:33.667Z,72.52
2018-07-04T21:31:40.530Z,72.47
2018-07-04T21:32:47.530Z,72.44
2018-07-04T21:33:54.534Z,72.40
2018-07-04T21:35:01.323Z,72.30
2018-07-04T21:36:08.189Z,72.24
2018-07-04T21:37:15.038Z,72.27
2018-07-04T21:38:22.006Z,72.29
2018-07-04T21:39:28.846Z,72.30
2018-07-04T21:40:35.741Z,72.26
2018-07-04T21:41:42.617Z,72.19
2018-07-04T21:42:49.498Z,72.14
2018-07-04T21:43:56.469Z,72.15
2018-07-04T21:45:03.395Z,72.15
2018-07-04T21:46:10.380Z,72.06
2018-07-04T21:47:17.310Z,71.97
2018-07-04T21:48:24.291Z,71.87
2018-07-04T21:49:31.190Z,72.07
2018-07-04T21:50:38.146Z,71.87
2018-07-04T21:51:44.985Z,71.87
2018-07-04T21:52:51.762Z,71.87
2018-07-04T21:53:58.766Z,71.84
2018-07-04T21:55:05.585Z,71.79
2018-07-04T21:56:12.621Z,71.71
2018-07-04T21:57:21.661Z,71.68
2018-07-04T21:58:26.545Z,71.63
2018-07-04T21:59:33.474Z,71.58
2018-07-04T22:00:40.447Z,71.54
2018-07-04T22:01:47.313Z,71.52
2018-07-04T22:02:54.270Z,71.47
2018-07-04T22:04:01.954Z,71.46
2018-07-04T22:05:08.255Z,71.51
2018-07-04T22:06:15.119Z,71.52
2018-07-04T22:07:21.973Z,71.55
2018-07-04T22:08:28.830Z,71.56
2018-07-04T22:09:35.759Z,71.60
2018-07-04T22:10:42.695Z,71.70
2018-07-04T22:11:49.647Z,71.77
2018-07-04T22:12:56.518Z,71.80
2018-07-04T22:14:03.403Z,71.92
2018-07-04T22:15:10.260Z,71.98
2018-07-04T22:16:17.202Z,72.02
2018-07-04T22:17:23.896Z,72.13
2018-07-04T22:18:30.709Z,72.25
2018-07-04T22:19:37.741Z,72.29
2018-07-04T22:20:44.691Z,72.34
2018-07-04T22:21:51.559Z,72.49
2018-07-04T22:22:58.706Z,72.56
2018-07-04T22:24:05.186Z,72.65
2018-07-04T22:25:12.182Z,72.73
2018-07-04T22:26:19.057Z,72.78
2018-07-04T22:27:26.122Z,72.88
2018-07-04T22:28:33.068Z,72.97
2018-07-04T22:29:39.929Z,73.01
2018-07-04T22:30:46.919Z,73.10
2018-07-04T22:31:53.702Z,73.17
2018-07-04T22:33:00.609Z,73.22
2018-07-04T22:34:07.649Z,73.24
2018-07-04T22:35:14.542Z,73.31
2018-07-04T22:36:21.530Z,73.27
2018-07-04T22:37:28.434Z,73.28
2018-07-04T22:38:35.466Z,73.27
2018-07-04T22:39:42.326Z,73.27
2018-07-04T22:40:49.266Z,73.29
2018-07-04T22:41:56.231Z,73.30
2018-07-04T22:43:03.101Z,73.34
2018-07-04T22:44:10.085Z,73.44
2018-07-04T22:45:16.808Z,73.44